createdAt,value
2023-03-22T00:01:59.689Z,100501.84
2023-03-22T00:04:25.850Z,100500.06
2023-03-22T00:06:51.970Z,100500.06
2023-03-22T00:09:18.178Z,100501.59
2023-03-22T00:11:44.360Z,100502.31
2023-03-22T00:14:10.505Z,100509.88
2023-03-22T00:16:36.682Z,100508.50
2023-03-22T00:19:02.810Z,100499.22
2023-03-22T00:21:28.970Z,100499.09
2023-03-22T00:23:55.092Z,100500.66
2023-03-22T00:26:21.289Z,100503.22
2023-03-22T00:28:47.413Z,100499.66
2023-03-22T00:31:13.639Z,100493.16
2023-03-22T00:33:39.875Z,100491.44
2023-03-22T00:36:06.046Z,100490.50
2023-03-22T00:38:41.751Z,100490.25
2023-03-22T00:41:08.861Z,100487.34
2023-03-22T00:43:35.069Z,100477.59
2023-03-22T00:46:01.230Z,100481.88
2023-03-22T00:48:27.370Z,100472.25
2023-03-22T00:50:53.513Z,100472.00
2023-03-22T00:53:19.686Z,100469.41
2023-03-22T00:55:45.846Z,100459.41
2023-03-22T00:58:12.018Z,100452.44
2023-03-22T01:00:38.413Z,100455.44
2023-03-22T01:03:04.870Z,100450.75
2023-03-22T01:05:31.069Z,100443.78
2023-03-22T01:07:57.272Z,100447.47
2023-03-22T01:10:23.404Z,100443.25
2023-03-22T01:12:49.536Z,100439.88
2023-03-22T01:15:15.718Z,100438.72
2023-03-22T01:17:41.900Z,100434.25
2023-03-22T01:20:08.063Z,100429.19
2023-03-22T01:22:34.187Z,100428.28
2023-03-22T01:25:00.335Z,100423.09
2023-03-22T01:27:26.513Z,100426.13
2023-03-22T01:29:52.709Z,100431.53
2023-03-22T01:32:18.897Z,100426.59
2023-03-22T01:34:45.073Z,100431.00
2023-03-22T01:37:11.243Z,100430.03
2023-03-22T01:39:37.366Z,100430.03
2023-03-22T01:42:03.537Z,100425.69
2023-03-22T01:44:29.705Z,100430.75
2023-03-22T01:46:55.850Z,100427.38
2023-03-22T01:49:22.080Z,100425.88
2023-03-22T01:51:48.278Z,100422.94
2023-03-22T01:54:14.438Z,100426.38
2023-03-22T01:56:40.563Z,100423.09
2023-03-22T01:59:06.818Z,100422.94
2023-03-22T02:01:33.052Z,100419.22
2023-03-22T02:03:59.296Z,100423.81
2023-03-22T02:06:25.469Z,100418.00
2023-03-22T02:08:51.639Z,100412.59
2023-03-22T02:11:17.827Z,100408.31
2023-03-22T02:13:44.034Z,100408.56
2023-03-22T02:16:10.247Z,100421.59
2023-03-22T02:18:36.439Z,100414.59
2023-03-22T02:21:02.666Z,100410.31
2023-03-22T02:23:28.864Z,100413.31
2023-03-22T02:25:55.055Z,100410.03
2023-03-22T02:28:21.248Z,100409.53
2023-03-22T02:30:47.404Z,100411.34
2023-03-22T02:33:13.626Z,100407.28
2023-03-22T02:35:39.838Z,100408.41
2023-03-22T02:38:05.991Z,100412.09
2023-03-22T02:40:32.178Z,100412.25
2023-03-22T02:42:58.344Z,100407.09
2023-03-22T02:45:24.473Z,100405.44
2023-03-22T02:47:50.740Z,100401.19
2023-03-22T02:50:16.938Z,100400.94
2023-03-22T02:52:43.101Z,100406.97
2023-03-22T02:55:09.264Z,100389.44
2023-03-22T02:57:35.453Z,100396.38
2023-03-22T03:00:01.675Z,100391.91
2023-03-22T03:02:27.887Z,100390.44
2023-03-22T03:04:54.128Z,100387.94
2023-03-22T03:12:50.401Z,100382.44
2023-03-22T03:15:16.558Z,100380.78
2023-03-22T03:17:42.710Z,100379.34
2023-03-22T03:20:08.862Z,100387.00
2023-03-22T03:22:35.061Z,100380.66
2023-03-22T03:25:01.234Z,100386.38
2023-03-22T03:27:27.388Z,100392.81
2023-03-22T03:29:53.557Z,100386.81
2023-03-22T03:32:19.710Z,100389.84
2023-03-22T03:34:45.870Z,100392.31
2023-03-22T03:37:12.020Z,100393.88
2023-03-22T03:39:38.160Z,100390.22
2023-03-22T03:42:04.310Z,100393.53
2023-03-22T03:44:30.499Z,100392.94
2023-03-22T03:46:56.699Z,100388.50
2023-03-22T03:49:22.864Z,100383.88
2023-03-22T03:51:49.051Z,100388.38
2023-03-22T03:54:15.191Z,100382.31
2023-03-22T03:56:41.338Z,100379.63
2023-03-22T03:59:07.465Z,100392.44
2023-03-22T04:01:33.618Z,100390.72
2023-03-22T04:03:59.836Z,100389.56
2023-03-22T04:06:26.053Z,100385.06
2023-03-22T04:08:52.193Z,100380.00
2023-03-22T04:11:18.386Z,100376.53
2023-03-22T04:13:44.573Z,100383.09
2023-03-22T04:16:10.744Z,100375.09
2023-03-22T04:18:36.903Z,100375.00
2023-03-22T04:21:03.044Z,100377.84
2023-03-22T04:23:29.244Z,100370.13
2023-03-22T04:25:55.397Z,100364.84
2023-03-22T04:28:21.515Z,100365.47
2023-03-22T04:30:47.670Z,100363.88
2023-03-22T04:33:13.866Z,100364.38
2023-03-22T04:35:40.028Z,100364.84
2023-03-22T04:38:06.159Z,100362.63
2023-03-22T04:40:32.299Z,100353.69
2023-03-22T04:42:58.472Z,100356.00
2023-03-22T04:45:24.620Z,100349.78
2023-03-22T04:47:50.778Z,100352.16
2023-03-22T04:50:16.964Z,100347.75
2023-03-22T04:52:43.117Z,100358.53
2023-03-22T04:55:09.277Z,100366.81
2023-03-22T04:57:35.452Z,100354.44
2023-03-22T05:00:01.606Z,100368.56
2023-03-22T05:02:27.757Z,100361.50
2023-03-22T05:04:53.919Z,100366.13
2023-03-22T05:07:20.038Z,100363.56
2023-03-22T05:09:46.199Z,100366.56
2023-03-22T05:12:12.333Z,100355.78
2023-03-22T05:14:38.586Z,100366.50
2023-03-22T05:17:04.813Z,100378.38
2023-03-22T05:19:31.002Z,100373.78
2023-03-22T05:21:57.182Z,100375.75
2023-03-22T05:24:23.359Z,100369.28
2023-03-22T05:26:49.581Z,100371.38
2023-03-22T05:29:15.815Z,100373.09
2023-03-22T05:31:41.998Z,100367.81
2023-03-22T05:34:08.180Z,100365.88
2023-03-22T05:36:34.322Z,100372.16
2023-03-22T05:39:00.474Z,100369.16
2023-03-22T05:41:26.741Z,100382.94
2023-03-22T05:43:52.956Z,100382.16
2023-03-22T05:46:19.188Z,100377.25
2023-03-22T05:48:45.418Z,100367.00
2023-03-22T05:51:11.604Z,100383.25
2023-03-22T05:53:37.730Z,100395.19
2023-03-22T05:56:03.872Z,100386.66
2023-03-22T05:58:30.001Z,100388.50
2023-03-22T06:00:56.149Z,100390.34
2023-03-22T06:03:22.418Z,100388.09
2023-03-22T06:05:48.629Z,100392.22
2023-03-22T06:08:14.834Z,100388.97
2023-03-22T06:10:41.301Z,100400.88
2023-03-22T06:13:07.694Z,100393.75
2023-03-22T06:15:33.881Z,100389.34
2023-03-22T06:18:00.043Z,100388.16
2023-03-22T06:20:26.180Z,100392.03
2023-03-22T06:22:52.326Z,100382.47
2023-03-22T06:25:18.449Z,100379.50
2023-03-22T06:27:44.587Z,100381.50
2023-03-22T06:30:10.730Z,100385.91
2023-03-22T06:32:36.881Z,100381.50
2023-03-22T06:35:03.050Z,100383.19
2023-03-22T06:37:29.257Z,100378.97
2023-03-22T06:39:55.486Z,100373.59
2023-03-22T06:42:21.639Z,100377.75
2023-03-22T06:44:47.772Z,100377.31
2023-03-22T06:47:13.970Z,100380.19
2023-03-22T06:49:40.164Z,100376.47
2023-03-22T06:52:06.341Z,100374.41
2023-03-22T06:54:32.478Z,100376.03
2023-03-22T06:56:58.626Z,100375.66
2023-03-22T06:59:24.766Z,100380.34
2023-03-22T07:01:50.898Z,100371.00
2023-03-22T07:04:17.158Z,100373.91
2023-03-22T07:06:43.307Z,100385.19
2023-03-22T07:09:09.458Z,100376.47
2023-03-22T07:11:35.636Z,100373.19
2023-03-22T07:14:01.771Z,100370.75
2023-03-22T07:16:28.030Z,100367.66
2023-03-22T07:18:54.192Z,100360.97
2023-03-22T07:21:20.319Z,100373.25
2023-03-22T07:23:46.457Z,100370.00
2023-03-22T07:26:12.604Z,100376.88
2023-03-22T07:31:29.811Z,100357.34
2023-03-22T07:33:56.027Z,100366.22
2023-03-22T07:36:22.161Z,100367.78
2023-03-22T07:38:48.325Z,100370.06
2023-03-22T07:41:17.835Z,100367.56
2023-03-22T07:43:53.367Z,100366.91
2023-03-22T07:46:24.901Z,100365.59
2023-03-22T07:48:51.051Z,100367.09
2023-03-22T07:51:17.178Z,100362.97
2023-03-22T07:53:43.357Z,100356.00
2023-03-22T07:56:09.505Z,100356.97
2023-03-22T07:58:35.717Z,100352.50
2023-03-22T08:01:01.985Z,100364.41
2023-03-22T08:03:28.203Z,100356.16
2023-03-22T08:05:54.387Z,100354.38
2023-03-22T08:08:28.937Z,100347.00
2023-03-22T08:10:55.222Z,100345.06
2023-03-22T08:13:21.396Z,100336.56
2023-03-22T08:15:47.610Z,100336.34
2023-03-22T08:18:13.835Z,100331.84
2023-03-22T08:20:40.218Z,100332.69
2023-03-22T08:23:06.517Z,100323.91
2023-03-22T08:25:32.748Z,100332.19
2023-03-22T08:27:58.916Z,100330.06
2023-03-22T08:30:25.101Z,100321.53
2023-03-22T08:32:51.269Z,100328.94
2023-03-22T08:35:17.529Z,100330.66
2023-03-22T08:37:43.766Z,100329.75
2023-03-22T08:40:09.967Z,100329.56
2023-03-22T08:42:36.262Z,100313.09
2023-03-22T08:45:02.393Z,100320.09
2023-03-22T08:47:28.560Z,100314.00
2023-03-22T08:49:54.749Z,100315.28
2023-03-22T08:52:20.962Z,100313.16
2023-03-22T08:54:47.098Z,100317.97
2023-03-22T08:57:13.257Z,100307.47
2023-03-22T08:59:39.481Z,100310.50
2023-03-22T09:02:05.730Z,100297.00
2023-03-22T09:04:32.013Z,100295.09
2023-03-22T09:06:58.212Z,100292.03
2023-03-22T09:09:24.389Z,100283.75
2023-03-22T09:11:50.558Z,100285.59
2023-03-22T09:14:16.719Z,100274.53
2023-03-22T09:16:42.940Z,100277.41
2023-03-22T09:19:09.086Z,100275.47
2023-03-22T09:21:35.211Z,100267.03
2023-03-22T09:24:01.505Z,100256.09
2023-03-22T09:26:27.652Z,100260.38
2023-03-22T09:28:53.850Z,100259.31
2023-03-22T09:31:20.808Z,100246.41
2023-03-22T09:33:47.096Z,100259.19
2023-03-22T09:36:13.255Z,100253.75
2023-03-22T09:38:39.453Z,100246.66
2023-03-22T09:41:05.621Z,100245.03
2023-03-22T09:43:33.170Z,100233.81
2023-03-22T09:45:59.499Z,100237.28
2023-03-22T09:48:25.745Z,100235.91
2023-03-22T09:50:51.901Z,100238.56
2023-03-22T09:53:18.034Z,100244.06
2023-03-22T09:55:44.226Z,100243.28
2023-03-22T09:58:10.401Z,100249.56
2023-03-22T10:00:36.726Z,100242.56
2023-03-22T10:03:02.927Z,100245.03
2023-03-22T10:05:29.118Z,100238.31
2023-03-22T10:07:55.326Z,100239.84
2023-03-22T10:10:21.493Z,100242.13
2023-03-22T10:12:47.686Z,100246.09
2023-03-22T10:15:13.839Z,100236.59
2023-03-22T10:17:39.995Z,100238.06
2023-03-22T10:20:06.172Z,100241.38
2023-03-22T10:22:32.307Z,100231.22
2023-03-22T10:24:58.513Z,100228.38
2023-03-22T10:27:24.733Z,100230.50
2023-03-22T10:29:50.952Z,100218.41
2023-03-22T10:32:17.133Z,100217.47
2023-03-22T10:34:43.303Z,100225.97
2023-03-22T10:37:09.425Z,100216.63
2023-03-22T10:39:36.100Z,100225.38
2023-03-22T10:42:03.383Z,100201.09
2023-03-22T10:44:29.806Z,100207.56
2023-03-22T10:46:56.044Z,100202.53
2023-03-22T10:49:22.243Z,100190.44
2023-03-22T10:51:48.438Z,100189.22
2023-03-22T10:54:15.739Z,100190.97
2023-03-22T10:56:41.907Z,100191.25
2023-03-22T10:59:08.049Z,100189.03
2023-03-22T11:01:34.373Z,100177.00
2023-03-22T11:04:00.622Z,100195.34
2023-03-22T11:06:26.865Z,100183.44
2023-03-22T11:08:53.068Z,100187.88
2023-03-22T11:11:19.283Z,100181.47
2023-03-22T11:13:45.500Z,100179.03
2023-03-22T11:16:11.661Z,100168.28
2023-03-22T11:18:37.876Z,100180.66
2023-03-22T11:21:04.088Z,100184.53
2023-03-22T11:23:30.286Z,100193.81
2023-03-22T11:25:56.557Z,100167.09
2023-03-22T11:28:22.738Z,100171.91
2023-03-22T11:30:48.939Z,100171.66
2023-03-22T11:33:15.202Z,100147.94
2023-03-22T11:35:41.482Z,100160.38
2023-03-22T11:38:07.712Z,100158.19
2023-03-22T11:40:33.967Z,100157.41
2023-03-22T11:43:00.146Z,100157.34
2023-03-22T11:45:26.380Z,100156.88
2023-03-22T11:47:52.644Z,100154.56
2023-03-22T11:50:18.918Z,100133.72
2023-03-22T11:52:45.111Z,100119.38
2023-03-22T11:55:11.358Z,100119.06
2023-03-22T11:57:37.501Z,100120.75
2023-03-22T12:00:03.639Z,100125.81
2023-03-22T12:02:29.921Z,100115.72
2023-03-22T12:04:56.247Z,100113.78
2023-03-22T12:07:22.441Z,100105.38
2023-03-22T12:09:48.658Z,100101.81
2023-03-22T12:12:14.816Z,100102.31
2023-03-22T12:14:41.037Z,100100.78
2023-03-22T12:17:07.192Z,100097.75
2023-03-22T12:19:33.409Z,100091.22
2023-03-22T12:21:59.608Z,100093.16
2023-03-22T12:24:25.770Z,100084.19
2023-03-22T12:26:51.936Z,100072.63
2023-03-22T12:29:18.121Z,100080.34
2023-03-22T12:31:44.324Z,100065.06
2023-03-22T12:34:10.502Z,100066.44
2023-03-22T12:36:36.624Z,100057.78
2023-03-22T12:39:02.792Z,100061.56
2023-03-22T12:41:34.809Z,100059.72
2023-03-22T12:44:01.008Z,100042.44
2023-03-22T12:46:27.210Z,100040.94
2023-03-22T12:48:54.528Z,100035.47
2023-03-22T12:51:20.820Z,100029.00
2023-03-22T12:53:47.019Z,100042.16
2023-03-22T12:56:13.175Z,100038.84
2023-03-22T12:58:39.372Z,100036.00
2023-03-22T13:01:05.635Z,100031.19
2023-03-22T13:03:34.971Z,100023.13
2023-03-22T13:06:01.445Z,100026.69
2023-03-22T13:08:27.630Z,100033.50
2023-03-22T13:10:56.626Z,100018.44
2023-03-22T13:13:22.830Z,100018.72
2023-03-22T13:15:49.030Z,100008.53
2023-03-22T13:18:15.274Z,100013.38
2023-03-22T13:20:41.771Z,100001.19
2023-03-22T13:23:08.083Z,100001.16
2023-03-22T13:25:34.223Z,100006.28
2023-03-22T13:28:00.406Z,100009.47
2023-03-22T13:30:28.358Z,100004.47
2023-03-22T13:32:56.326Z,100011.16
2023-03-22T13:35:22.821Z,100003.03
2023-03-22T13:37:49.039Z,100009.91
2023-03-22T13:40:15.176Z,99996.72
2023-03-22T13:42:41.415Z,100002.94
2023-03-22T13:45:07.604Z,100001.09
2023-03-22T13:47:33.796Z,100005.22
2023-03-22T13:50:00.018Z,99997.94
2023-03-22T13:52:26.194Z,99985.31
2023-03-22T13:54:52.360Z,99994.53
2023-03-22T13:57:18.559Z,99998.31
2023-03-22T13:59:44.709Z,99988.28
2023-03-22T14:02:10.917Z,99999.69
2023-03-22T14:04:37.223Z,99987.84
2023-03-22T14:07:03.366Z,99982.53
2023-03-22T14:09:29.566Z,99984.09
2023-03-22T14:11:57.128Z,99980.16
2023-03-22T14:14:23.535Z,99975.13
2023-03-22T14:16:49.754Z,99963.34
2023-03-22T14:19:15.947Z,99977.22
2023-03-22T14:21:42.143Z,99959.72
